• Join FlightAware (Why Join?)
  • Login
  • US Flag 
07:04PM EDT


 

Airport Tracker/Info


-or-


 

Live Flight TrackerFlight Track Log ✈ N201FR ✈ 17-Jul-2013 ✈ KLAS - KDEN

Flight Track Log - Related Links

Times and Time Zones

All times are in EDT time to prevent confusion due to time zone crossing. See the N201FR flight status page for this flight to view local times or setup timezone preferences in your user account.

Time Position Orientation Groundspeed Altitude Reporting Facility
EDT Latitude Longitude Course Direction KTS MPH feet Rate Location/Type
02:20PM 36.0758 -115.1764 62° Northeast 197 227 3,100  Level Los Angeles Center
02:21PM 36.0775 -115.2342 272° West 197 227 4,100 1,620 Climbing Los Angeles Center
02:22PM 36.1142 -115.2942 307° West 258 297 6,100 1,920 Climbing Los Angeles Center
02:23PM 36.1681 -115.2222 47° Northeast 266 306 8,900 1,860 Climbing Los Angeles Center
02:24PM 36.1558 -115.1317 99° East 266 306 10,800 1,500 Climbing Los Angeles Center
02:25PM 36.1628 -114.9994 86° East 323 372 12,100 1,560 Climbing Los Angeles Center
02:26PM 36.3901 -114.4152 62° Northeast  Level Estimated
02:26PM 36.1678 -114.8781 87° East 351 404 14,100  Level Los Angeles Center
02:28PM 36.1731 -114.7522 87° East 363 418 16,100 1,740 Climbing Los Angeles Center
02:29PM 36.1786 -114.6250 87° East 370 426 17,800 1,560 Climbing Los Angeles Center
02:30PM 36.1836 -114.4939 87° East 379 436 19,400 1,260 Climbing Los Angeles Center
02:31PM 36.1881 -114.3867 87° East 387 445 20,500 1,500 Climbing Los Angeles Center
02:32PM 36.1981 -114.1925 86° East 404 465 22,500 1,500 Climbing Los Angeles Center
02:33PM 36.2164 -114.0539 81° East 407 468 23,700 1,080 Climbing Los Angeles Center
02:34PM 36.2328 -113.9111 82° East 416 479 24,800 840 Climbing Los Angeles Center
02:35PM 36.2500 -113.7644 82° East 427 491 25,500 720 Climbing Los Angeles Center
02:36PM 36.2681 -113.6108 82° East 446 513 26,300 720 Climbing Los Angeles Center
02:37PM 36.2900 -113.4900 77° East 450 518 27,000 780 Climbing Los Angeles Center
02:38PM 36.3717 -113.2900 63° Northeast 461 531 28,000 840 Climbing Los Angeles Center
02:39PM 36.4317 -113.1419 63° Northeast 468 539 28,800 600 Climbing Los Angeles Center
02:40PM 36.5011 -112.9658 64° Northeast 475 547 29,400 660 Climbing Los Angeles Center
02:41PM 36.5603 -112.8172 64° Northeast 480 552 30,400 780 Climbing Los Angeles Center
02:42PM 36.6058 -112.6989 64° Northeast 478 550 31,100 720 Climbing Los Angeles Center
02:43PM 36.6747 -112.5239 64° Northeast 473 544 32,000 660 Climbing Los Angeles Center
02:44PM 36.7431 -112.3497 64° Northeast 470 541 32,500 540 Climbing Los Angeles Center
02:45PM 36.7989 -112.2064 64° Northeast 465 535 33,200 780 Climbing Los Angeles Center
02:46PM 36.8542 -112.0608 65° Northeast 466 536 34,200 900 Climbing Los Angeles Center
02:47PM 36.9089 -111.9192 64° Northeast 458 527 35,100 780 Climbing Los Angeles Center
02:48PM 36.9639 -111.7767 64° Northeast 457 526 35,900 720 Climbing Los Angeles Center
02:49PM 37.0269 -111.6081 65° Northeast 448 516 36,600 480 Climbing Los Angeles Center
02:50PM 37.0817 -111.4669 64° Northeast 451 519 37,000 180 Climbing Los Angeles Center
02:52PM 37.1342 -111.3278 65° Northeast 447 514 37,000  Level Los Angeles Center
02:53PM 37.1858 -111.1892 65° Northeast 442 509 37,000  Level Los Angeles Center
02:54PM 37.2450 -111.0250 66° East 434 499 37,000  Level Denver Center
02:55PM 37.2961 -110.8883 65° Northeast 435 501 37,000  Level Denver Center
02:56PM 37.3467 -110.7519 65° Northeast 433 498 37,000  Level Denver Center
02:57PM 37.3872 -110.6428 65° Northeast 432 497 37,000  Level Denver Center
02:58PM 37.4581 -110.4489 65° Northeast 436 502 37,000  Level Denver Center
02:59PM 37.5108 -110.3058 65° Northeast 434 499 37,000  Level Denver Center
03:00PM 37.5589 -110.1728 65° Northeast 436 502 37,000  Level Denver Center
03:01PM 37.6150 -110.0158 66° East 438 504 37,100  Climbing Denver Center
03:02PM 37.6631 -109.8825 65° Northeast 435 501 37,000 -60 Descending Denver Center
03:03PM 37.7114 -109.7492 65° Northeast 435 501 37,000  Level Denver Center
03:04PM 37.7656 -109.5944 66° East 431 496 37,000  Level Denver Center
03:05PM 37.8294 -109.4161 66° East 434 499 37,000  Level Denver Center
03:06PM 37.8761 -109.2833 66° East 431 496 37,000  Level Denver Center
03:07PM 37.9356 -109.1306 64° Northeast 433 498 37,000  Level Denver Center
03:08PM 37.9906 -109.0033 61° Northeast 430 495 37,000  Level Denver Center
03:09PM 38.0442 -108.8756 62° Northeast 429 494 37,000  Level Denver Center
03:10PM 38.1033 -108.7347 62° Northeast 429 494 37,000  Level Denver Center
03:12PM 38.1647 -108.5856 62° Northeast 428 493 37,000  Level Denver Center
03:13PM 38.2186 -108.4581 62° Northeast 429 494 37,000  Level Denver Center
03:14PM 38.2889 -108.2867 62° Northeast 429 494 37,000  Level Denver Center
03:15PM 38.3503 -108.1372 62° Northeast 428 493 37,000  Level Denver Center
03:16PM 38.4025 -108.0106 62° Northeast 425 489 37,000  Level Denver Center
03:17PM 38.4544 -107.8822 63° Northeast 426 490 37,000  Level Denver Center
03:18PM 38.5150 -107.7322 63° Northeast 426 490 37,000  Level Denver Center
03:19PM 38.5672 -107.6050 62° Northeast 424 488 37,000 -300 Level Denver Center
03:20PM 38.6278 -107.4544 63° Northeast 427 491 36,400 -660 Descending Denver Center
03:21PM 38.6800 -107.3256 63° Northeast 428 493 35,700 -780 Descending Denver Center
03:22PM 38.7403 -107.1722 63° Northeast 434 499 34,900 -780 Descending Denver Center
03:23PM 38.7981 -107.0283 63° Northeast 433 498 34,200 -660 Descending Denver Center
03:24PM 38.8539 -106.8858 63° Northeast 438 504 33,600 -660 Descending Denver Center
03:25PM 38.9072 -106.7514 63° Northeast 442 509 32,900 -720 Descending Denver Center
03:26PM 38.9686 -106.5933 63° Northeast 444 511 32,200 -720 Descending Denver Center
03:27PM 39.0231 -106.4553 63° Northeast 450 518 31,500 -600 Descending Denver Center
03:28PM 39.0858 -106.2931 63° Northeast 455 524 31,000 -300 Descending Denver Center
03:29PM 39.1378 -106.1547 64° Northeast 461 531 30,900 -1,620 Descending Denver Center
03:30PM 39.1967 -106.0042 63° Northeast 469 540 27,700 -2,820 Descending Denver Center
03:31PM 39.2519 -105.8586 64° Northeast 456 525 25,100 -2,640 Descending Denver Center
03:32PM 39.3158 -105.6925 64° Northeast 433 498 22,300 -1,800 Descending Denver Center
03:33PM 39.3639 -105.5656 64° Northeast 398 458 21,400 -1,140 Descending Denver Center
03:35PM 39.4667 -105.3500 58° Northeast 334 384 19,000 -1,320 Descending Denver TRACON
03:36PM 39.5167 -105.2667 52° Northeast 332 382 17,700 -1,200 Descending Denver TRACON
03:37PM 39.5667 -105.1667 57° Northeast 327 376 16,600 -1,080 Descending Denver TRACON
03:38PM 39.6167 -105.0667 57° Northeast 325 374 15,500 -1,140 Descending Denver TRACON
03:39PM 39.6667 -104.9667 57° Northeast 317 365 14,400 -1,080 Descending Denver TRACON
03:40PM 39.7167 -104.8667 57° Northeast 313 360 13,400 -1,200 Descending Denver TRACON
03:41PM 39.7833 -104.8333 21° North 310 357 12,000 -1,200 Descending Denver TRACON
03:42PM 39.8833 -104.8333 360° North 312 359 11,000 -660 Descending Denver TRACON
03:43PM 39.9500 -104.8333 360° North 262 302 10,700 -840 Descending Denver TRACON
03:44PM 40.0167 -104.8333 360° North 256 295 9,400 -1,140 Descending Denver TRACON
03:45PM 40.0833 -104.8333 360° North 253 291 8,500 -720 Descending Denver TRACON
03:46PM 40.1008 -104.7967 58° Northeast 245 282 8,300 -540 Descending Denver Center
03:47PM 40.0422 -104.7325 140° Southeast 241 277 7,600 -720 Descending Denver Center
03:48PM 39.9800 -104.6958 156° South 223 257 6,800 -780 Descending Denver Center
03:49PM 39.9272 -104.6958 180° South 190 219 6,000 -780 Descending Denver Center
03:50PM 39.8881 -104.6964 181° South 158 182 5,300 -720 Descending Denver Center
03:52PM 39.8617 -104.6732 162° South  Level Estimated
03:59PM 39.8617 -104.6732 162° South  Level Estimated
04:00PM 39.8617 -104.6732 162° South  Level Estimated